sensor_id;sensor_type;location;lat;lon;timestamp;pressure;altitude;pressure_sealevel;temperature;humidity
15294;BME280;7748;52.474;13.454;2023-01-30T00:01:49;100938.84;;;2.51;100.00
15294;BME280;7748;52.474;13.454;2023-01-30T00:04:17;100929.94;;;2.46;100.00
15294;BME280;7748;52.474;13.454;2023-01-30T00:06:44;100928.97;;;2.44;100.00
15294;BME280;7748;52.474;13.454;2023-01-30T00:09:13;100929.16;;;2.47;100.00
15294;BME280;7748;52.474;13.454;2023-01-30T00:11:41;100913.56;;;2.44;100.00
15294;BME280;7748;52.474;13.454;2023-01-30T00:14:09;100901.72;;;2.46;100.00
15294;BME280;7748;52.474;13.454;2023-01-30T00:16:36;100895.47;;;2.54;100.00
15294;BME280;7748;52.474;13.454;2023-01-30T00:19:06;100883.00;;;2.47;100.00
15294;BME280;7748;52.474;13.454;2023-01-30T00:21:33;100882.91;;;2.45;100.00
15294;BME280;7748;52.474;13.454;2023-01-30T00:24:01;100866.94;;;2.49;100.00
15294;BME280;7748;52.474;13.454;2023-01-30T00:26:29;100866.56;;;2.57;100.00
15294;BME280;7748;52.474;13.454;2023-01-30T00:28:57;100860.69;;;2.46;100.00
15294;BME280;7748;52.474;13.454;2023-01-30T00:31:25;100842.88;;;2.47;100.00
15294;BME280;7748;52.474;13.454;2023-01-30T00:33:52;100837.28;;;2.53;100.00
15294;BME280;7748;52.474;13.454;2023-01-30T00:36:22;100827.69;;;2.50;100.00
15294;BME280;7748;52.474;13.454;2023-01-30T00:38:49;100814.97;;;2.52;100.00
15294;BME280;7748;52.474;13.454;2023-01-30T00:41:17;100797.59;;;2.48;100.00
15294;BME280;7748;52.474;13.454;2023-01-30T00:43:45;100782.91;;;2.45;100.00
15294;BME280;7748;52.474;13.454;2023-01-30T00:46:32;100784.16;;;2.39;100.00
15294;BME280;7748;52.474;13.454;2023-01-30T00:49:18;100775.13;;;2.44;100.00
15294;BME280;7748;52.474;13.454;2023-01-30T00:51:47;100764.47;;;2.38;100.00
15294;BME280;7748;52.474;13.454;2023-01-30T00:54:15;100744.94;;;2.40;100.00
15294;BME280;7748;52.474;13.454;2023-01-30T00:56:42;100732.91;;;2.39;100.00
15294;BME280;7748;52.474;13.454;2023-01-30T00:59:10;100740.00;;;2.43;100.00
15294;BME280;7748;52.474;13.454;2023-01-30T01:01:38;100728.69;;;2.39;100.00
15294;BME280;7748;52.474;13.454;2023-01-30T01:04:06;100721.66;;;2.37;100.00
15294;BME280;7748;52.474;13.454;2023-01-30T01:06:35;100718.72;;;2.44;100.00
15294;BME280;7748;52.474;13.454;2023-01-30T01:09:05;100726.59;;;2.34;100.00
15294;BME280;7748;52.474;13.454;2023-01-30T01:11:34;100736.16;;;2.36;100.00
15294;BME280;7748;52.474;13.454;2023-01-30T01:14:05;100724.81;;;2.33;100.00
15294;BME280;7748;52.474;13.454;2023-01-30T01:16:35;100716.31;;;2.34;100.00
15294;BME280;7748;52.474;13.454;2023-01-30T01:19:03;100709.03;;;2.26;100.00
15294;BME280;7748;52.474;13.454;2023-01-30T01:21:31;100706.28;;;2.37;100.00
15294;BME280;7748;52.474;13.454;2023-01-30T01:23:59;100662.88;;;2.26;100.00
15294;BME280;7748;52.474;13.454;2023-01-30T01:26:29;100650.56;;;2.34;100.00
15294;BME280;7748;52.474;13.454;2023-01-30T01:28:57;100655.22;;;2.40;100.00
15294;BME280;7748;52.474;13.454;2023-01-30T01:31:25;100656.00;;;2.39;100.00
15294;BME280;7748;52.474;13.454;2023-01-30T01:33:53;100652.84;;;2.43;100.00
15294;BME280;7748;52.474;13.454;2023-01-30T01:36:21;100654.50;;;2.29;100.00
15294;BME280;7748;52.474;13.454;2023-01-30T01:39:09;100648.53;;;2.42;100.00
15294;BME280;7748;52.474;13.454;2023-01-30T01:41:39;100641.22;;;2.35;100.00
15294;BME280;7748;52.474;13.454;2023-01-30T01:44:06;100655.41;;;2.43;100.00
15294;BME280;7748;52.474;13.454;2023-01-30T01:46:37;100665.47;;;2.40;100.00
15294;BME280;7748;52.474;13.454;2023-01-30T01:49:13;100667.81;;;2.37;100.00
15294;BME280;7748;52.474;13.454;2023-01-30T01:51:47;100659.34;;;2.38;100.00
15294;BME280;7748;52.474;13.454;2023-01-30T01:54:20;100669.03;;;2.42;100.00
15294;BME280;7748;52.474;13.454;2023-01-30T01:56:51;100664.50;;;2.38;100.00
15294;BME280;7748;52.474;13.454;2023-01-30T01:59:23;100642.41;;;2.40;100.00
15294;BME280;7748;52.474;13.454;2023-01-30T02:01:55;100632.63;;;2.34;100.00
15294;BME280;7748;52.474;13.454;2023-01-30T02:04:27;100632.91;;;2.39;100.00
15294;BME280;7748;52.474;13.454;2023-01-30T02:07:16;100614.22;;;2.40;100.00
15294;BME280;7748;52.474;13.454;2023-01-30T02:09:45;100596.44;;;2.43;100.00
15294;BME280;7748;52.474;13.454;2023-01-30T02:12:14;100582.75;;;2.42;100.00
15294;BME280;7748;52.474;13.454;2023-01-30T02:14:42;100579.50;;;2.31;100.00
15294;BME280;7748;52.474;13.454;2023-01-30T02:17:10;100582.84;;;2.30;100.00
15294;BME280;7748;52.474;13.454;2023-01-30T02:19:46;100579.41;;;2.30;100.00
15294;BME280;7748;52.474;13.454;2023-01-30T02:22:44;100564.13;;;2.31;100.00
15294;BME280;7748;52.474;13.454;2023-01-30T02:25:51;100541.03;;;2.31;100.00
15294;BME280;7748;52.474;13.454;2023-01-30T02:29:02;100518.97;;;2.20;100.00
15294;BME280;7748;52.474;13.454;2023-01-30T02:31:41;100522.53;;;2.22;100.00
15294;BME280;7748;52.474;13.454;2023-01-30T02:34:23;100514.25;;;2.26;100.00
15294;BME280;7748;52.474;13.454;2023-01-30T02:37:01;100518.97;;;2.20;100.00
15294;BME280;7748;52.474;13.454;2023-01-30T02:39:37;100519.78;;;2.19;100.00
15294;BME280;7748;52.474;13.454;2023-01-30T02:42:13;100514.25;;;2.26;100.00
15294;BME280;7748;52.474;13.454;2023-01-30T02:44:51;100520.06;;;2.24;100.00
15294;BME280;7748;52.474;13.454;2023-01-30T02:47:27;100515.34;;;2.30;100.00
15294;BME280;7748;52.474;13.454;2023-01-30T02:49:59;100497.47;;;2.31;100.00
15294;BME280;7748;52.474;13.454;2023-01-30T02:52:29;100490.38;;;2.27;100.00
15294;BME280;7748;52.474;13.454;2023-01-30T02:54:58;100486.06;;;2.26;100.00
15294;BME280;7748;52.474;13.454;2023-01-30T02:57:25;100478.78;;;2.19;100.00
15294;BME280;7748;52.474;13.454;2023-01-30T03:00:02;100473.53;;;2.18;100.00
15294;BME280;7748;52.474;13.454;2023-01-30T03:02:45;100455.31;;;2.13;100.00
15294;BME280;7748;52.474;13.454;2023-01-30T03:05:36;100449.13;;;2.09;100.00
15294;BME280;7748;52.474;13.454;2023-01-30T03:08:18;100439.75;;;2.10;100.00
15294;BME280;7748;52.474;13.454;2023-01-30T03:10:52;100434.81;;;2.13;100.00
15294;BME280;7748;52.474;13.454;2023-01-30T03:13:28;100429.31;;;2.07;100.00
15294;BME280;7748;52.474;13.454;2023-01-30T03:16:02;100432.66;;;2.06;100.00
15294;BME280;7748;52.474;13.454;2023-01-30T03:18:33;100432.66;;;2.06;100.00
15294;BME280;7748;52.474;13.454;2023-01-30T03:21:03;100431.47;;;2.14;100.00
15294;BME280;7748;52.474;13.454;2023-01-30T03:23:32;100422.81;;;2.12;100.00
15294;BME280;7748;52.474;13.454;2023-01-30T03:26:01;100419.03;;;2.20;100.00
15294;BME280;7748;52.474;13.454;2023-01-30T03:28:30;100412.91;;;2.31;100.00
15294;BME280;7748;52.474;13.454;2023-01-30T03:30:58;100413.25;;;2.23;100.00
15294;BME280;7748;52.474;13.454;2023-01-30T03:33:26;100414.41;;;2.28;100.00
15294;BME280;7748;52.474;13.454;2023-01-30T03:35:55;100401.47;;;2.26;100.00
15294;BME280;7748;52.474;13.454;2023-01-30T03:38:23;100399.72;;;2.25;100.00
15294;BME280;7748;52.474;13.454;2023-01-30T03:40:51;100403.75;;;2.22;100.00
15294;BME280;7748;52.474;13.454;2023-01-30T03:43:19;100395.66;;;2.29;100.00
15294;BME280;7748;52.474;13.454;2023-01-30T03:45:47;100410.38;;;2.18;100.00
15294;BME280;7748;52.474;13.454;2023-01-30T03:48:14;100408.56;;;2.30;100.00
15294;BME280;7748;52.474;13.454;2023-01-30T03:50:42;100383.28;;;2.37;100.00
15294;BME280;7748;52.474;13.454;2023-01-30T03:53:12;100379.22;;;2.25;100.00
15294;BME280;7748;52.474;13.454;2023-01-30T03:55:40;100374.81;;;2.23;100.00
15294;BME280;7748;52.474;13.454;2023-01-30T03:58:07;100365.59;;;2.26;100.00
15294;BME280;7748;52.474;13.454;2023-01-30T04:00:36;100358.31;;;2.33;100.00
15294;BME280;7748;52.474;13.454;2023-01-30T04:03:03;100366.75;;;2.31;100.00
15294;BME280;7748;52.474;13.454;2023-01-30T04:05:31;100364.41;;;2.35;100.00
15294;BME280;7748;52.474;13.454;2023-01-30T04:07:59;100342.28;;;2.37;100.00
15294;BME280;7748;52.474;13.454;2023-01-30T04:10:28;100338.94;;;2.38;100.00
15294;BME280;7748;52.474;13.454;2023-01-30T04:12:56;100337.50;;;2.28;100.00
15294;BME280;7748;52.474;13.454;2023-01-30T04:15:24;100329.06;;;2.44;100.00
15294;BME280;7748;52.474;13.454;2023-01-30T04:17:54;100322.16;;;2.43;100.00
15294;BME280;7748;52.474;13.454;2023-01-30T04:20:22;100311.91;;;2.43;100.00
15294;BME280;7748;52.474;13.454;2023-01-30T04:22:50;100307.16;;;2.49;100.00
15294;BME280;7748;52.474;13.454;2023-01-30T04:25:18;100312.19;;;2.47;100.00
15294;BME280;7748;52.474;13.454;2023-01-30T04:27:48;100310.88;;;2.54;100.00
15294;BME280;7748;52.474;13.454;2023-01-30T04:30:16;100317.59;;;2.52;100.00
15294;BME280;7748;52.474;13.454;2023-01-30T04:32:44;100307.50;;;2.55;100.00
15294;BME280;7748;52.474;13.454;2023-01-30T04:35:12;100303.44;;;2.59;100.00
15294;BME280;7748;52.474;13.454;2023-01-30T04:37:40;100300.63;;;2.54;100.00
15294;BME280;7748;52.474;13.454;2023-01-30T04:40:09;100292.91;;;2.54;100.00
15294;BME280;7748;52.474;13.454;2023-01-30T04:42:37;100293.47;;;2.63;100.00
15294;BME280;7748;52.474;13.454;2023-01-30T04:45:07;100297.44;;;2.58;100.00
15294;BME280;7748;52.474;13.454;2023-01-30T04:47:35;100288.94;;;2.59;100.00
15294;BME280;7748;52.474;13.454;2023-01-30T04:50:04;100285.94;;;2.66;100.00
15294;BME280;7748;52.474;13.454;2023-01-30T04:52:32;100279.06;;;2.65;100.00
15294;BME280;7748;52.474;13.454;2023-01-30T04:54:59;100271.88;;;2.74;100.00
15294;BME280;7748;52.474;13.454;2023-01-30T04:57:27;100268.09;;;2.68;100.00
15294;BME280;7748;52.474;13.454;2023-01-30T04:59:55;100263.59;;;2.79;100.00
15294;BME280;7748;52.474;13.454;2023-01-30T05:02:24;100265.25;;;2.78;100.00
15294;BME280;7748;52.474;13.454;2023-01-30T05:04:52;100262.59;;;2.77;100.00
15294;BME280;7748;52.474;13.454;2023-01-30T05:07:20;100259.06;;;2.74;100.00
15294;BME280;7748;52.474;13.454;2023-01-30T05:09:47;100252.16;;;2.73;100.00
15294;BME280;7748;52.474;13.454;2023-01-30T05:12:15;100250.75;;;2.79;100.00
15294;BME280;7748;52.474;13.454;2023-01-30T05:14:43;100249.16;;;2.66;100.00
15294;BME280;7748;52.474;13.454;2023-01-30T05:17:11;100245.09;;;2.69;100.00
15294;BME280;7748;52.474;13.454;2023-01-30T05:19:41;100237.16;;;2.65;100.00
15294;BME280;7748;52.474;13.454;2023-01-30T05:22:08;100234.66;;;2.66;100.00
15294;BME280;7748;52.474;13.454;2023-01-30T05:24:36;100235.19;;;2.61;100.00
15294;BME280;7748;52.474;13.454;2023-01-30T05:27:04;100229.00;;;2.57;100.00
15294;BME280;7748;52.474;13.454;2023-01-30T05:29:32;100239.09;;;2.54;100.00
15294;BME280;7748;52.474;13.454;2023-01-30T05:32:00;100236.78;;;2.59;100.00
15294;BME280;7748;52.474;13.454;2023-01-30T05:34:28;100222.00;;;2.55;100.00
15294;BME280;7748;52.474;13.454;2023-01-30T05:36:57;100213.28;;;2.51;100.00
15294;BME280;7748;52.474;13.454;2023-01-30T05:39:24;100207.63;;;2.42;100.00
15294;BME280;7748;52.474;13.454;2023-01-30T05:41:52;100204.97;;;2.40;100.00
15294;BME280;7748;52.474;13.454;2023-01-30T05:44:20;100203.91;;;2.51;100.00
15294;BME280;7748;52.474;13.454;2023-01-30T05:46:48;100188.69;;;2.40;100.00
15294;BME280;7748;52.474;13.454;2023-01-30T05:49:16;100179.44;;;2.42;100.00
15294;BME280;7748;52.474;13.454;2023-01-30T05:51:44;100191.78;;;2.49;100.00
15294;BME280;7748;52.474;13.454;2023-01-30T05:54:13;100188.34;;;2.48;100.00
15294;BME280;7748;52.474;13.454;2023-01-30T05:56:41;100180.72;;;2.50;100.00
15294;BME280;7748;52.474;13.454;2023-01-30T05:59:10;100163.94;;;2.40;100.00
15294;BME280;7748;52.474;13.454;2023-01-30T06:01:38;100164.31;;;2.46;100.00
15294;BME280;7748;52.474;13.454;2023-01-30T06:04:06;100161.09;;;2.50;100.00
15294;BME280;7748;52.474;13.454;2023-01-30T06:06:34;100153.84;;;2.43;100.00
15294;BME280;7748;52.474;13.454;2023-01-30T06:09:02;100159.09;;;2.45;100.00
15294;BME280;7748;52.474;13.454;2023-01-30T06:11:32;100162.34;;;2.42;100.00
15294;BME280;7748;52.474;13.454;2023-01-30T06:13:59;100154.75;;;2.44;100.00
15294;BME280;7748;52.474;13.454;2023-01-30T06:16:27;100146.25;;;2.45;100.00
15294;BME280;7748;52.474;13.454;2023-01-30T06:18:55;100160.84;;;2.46;100.00
15294;BME280;7748;52.474;13.454;2023-01-30T06:21:23;100159.19;;;2.46;100.00
15294;BME280;7748;52.474;13.454;2023-01-30T06:23:50;100151.56;;;2.48;100.00
15294;BME280;7748;52.474;13.454;2023-01-30T06:26:18;100148.22;;;2.49;100.00
15294;BME280;7748;52.474;13.454;2023-01-30T06:28:47;100154.56;;;2.56;100.00
15294;BME280;7748;52.474;13.454;2023-01-30T06:31:15;100143.66;;;2.60;100.00
15294;BME280;7748;52.474;13.454;2023-01-30T06:33:43;100146.50;;;2.64;100.00
15294;BME280;7748;52.474;13.454;2023-01-30T06:36:11;100160.13;;;2.63;100.00
15294;BME280;7748;52.474;13.454;2023-01-30T06:38:39;100152.44;;;2.63;100.00
15294;BME280;7748;52.474;13.454;2023-01-30T06:41:07;100160.22;;;2.65;100.00
15294;BME280;7748;52.474;13.454;2023-01-30T06:43:35;100150.47;;;2.74;100.00
15294;BME280;7748;52.474;13.454;2023-01-30T06:46:04;100151.66;;;2.81;100.00
15294;BME280;7748;52.474;13.454;2023-01-30T06:48:32;100160.03;;;2.77;100.00
15294;BME280;7748;52.474;13.454;2023-01-30T06:51:00;100146.88;;;2.87;100.00
15294;BME280;7748;52.474;13.454;2023-01-30T06:53:28;100152.84;;;2.86;100.00
15294;BME280;7748;52.474;13.454;2023-01-30T06:55:56;100149.00;;;2.94;100.00
15294;BME280;7748;52.474;13.454;2023-01-30T06:58:25;100140.81;;;3.01;100.00
15294;BME280;7748;52.474;13.454;2023-01-30T07:00:53;100133.94;;;3.00;100.00
15294;BME280;7748;52.474;13.454;2023-01-30T07:03:22;100126.75;;;3.09;100.00
15294;BME280;7748;52.474;13.454;2023-01-30T07:05:50;100116.38;;;3.08;100.00
15294;BME280;7748;52.474;13.454;2023-01-30T07:08:18;100121.75;;;3.12;100.00
15294;BME280;7748;52.474;13.454;2023-01-30T07:10:49;100117.75;;;3.17;100.00
15294;BME280;7748;52.474;13.454;2023-01-30T07:13:17;100118.00;;;3.22;100.00
15294;BME280;7748;52.474;13.454;2023-01-30T07:15:45;100121.47;;;3.23;100.00
15294;BME280;7748;52.474;13.454;2023-01-30T07:18:13;100113.44;;;3.33;100.00
15294;BME280;7748;52.474;13.454;2023-01-30T07:20:45;100104.13;;;3.35;100.00
15294;BME280;7748;52.474;13.454;2023-01-30T07:23:13;100105.34;;;3.42;100.00
15294;BME280;7748;52.474;13.454;2023-01-30T07:25:41;100102.94;;;3.45;100.00
15294;BME280;7748;52.474;13.454;2023-01-30T07:28:10;100086.94;;;3.50;100.00
15294;BME280;7748;52.474;13.454;2023-01-30T07:30:38;100093.47;;;3.60;100.00
15294;BME280;7748;52.474;13.454;2023-01-30T07:33:06;100095.31;;;3.63;100.00
15294;BME280;7748;52.474;13.454;2023-01-30T07:35:35;100092.88;;;3.66;100.00
15294;BME280;7748;52.474;13.454;2023-01-30T07:38:05;100090.69;;;3.73;100.00
15294;BME280;7748;52.474;13.454;2023-01-30T07:40:33;100089.31;;;3.80;100.00
15294;BME280;7748;52.474;13.454;2023-01-30T07:43:03;100086.75;;;3.80;100.00
15294;BME280;7748;52.474;13.454;2023-01-30T07:45:34;100092.06;;;3.83;100.00
15294;BME280;7748;52.474;13.454;2023-01-30T07:48:03;100093.94;;;3.87;100.00
15294;BME280;7748;52.474;13.454;2023-01-30T07:50:31;100099.56;;;3.96;100.00
15294;BME280;7748;52.474;13.454;2023-01-30T07:53:02;100099.09;;;3.87;100.00
15294;BME280;7748;52.474;13.454;2023-01-30T07:55:31;100104.56;;;3.93;100.00
15294;BME280;7748;52.474;13.454;2023-01-30T07:57:59;100105.50;;;3.95;100.00
15294;BME280;7748;52.474;13.454;2023-01-30T08:00:27;100119.66;;;3.87;100.00
15294;BME280;7748;52.474;13.454;2023-01-30T08:02:54;100121.56;;;3.91;100.00
15294;BME280;7748;52.474;13.454;2023-01-30T08:05:22;100114.84;;;3.93;100.00
15294;BME280;7748;52.474;13.454;2023-01-30T08:07:50;100126.94;;;3.96;100.00
15294;BME280;7748;52.474;13.454;2023-01-30T08:10:19;100116.13;;;4.02;100.00
15294;BME280;7748;52.474;13.454;2023-01-30T08:12:50;100108.63;;;4.06;100.00
15294;BME280;7748;52.474;13.454;2023-01-30T08:15:17;100107.06;;;4.10;100.00
15294;BME280;7748;52.474;13.454;2023-01-30T08:17:52;100102.25;;;4.16;100.00
15294;BME280;7748;52.474;13.454;2023-01-30T08:20:20;100105.91;;;4.21;100.00
15294;BME280;7748;52.474;13.454;2023-01-30T08:22:48;100107.09;;;4.28;100.00
15294;BME280;7748;52.474;13.454;2023-01-30T08:25:38;100106.50;;;4.33;100.00
15294;BME280;7748;52.474;13.454;2023-01-30T08:28:24;100101.53;;;4.36;100.00
15294;BME280;7748;52.474;13.454;2023-01-30T08:30:52;100100.63;;;4.36;100.00
15294;BME280;7748;52.474;13.454;2023-01-30T08:33:21;100096.66;;;4.42;100.00
15294;BME280;7748;52.474;13.454;2023-01-30T08:35:49;100076.91;;;4.41;100.00
15294;BME280;7748;52.474;13.454;2023-01-30T08:38:18;100062.72;;;4.50;100.00
15294;BME280;7748;52.474;13.454;2023-01-30T08:40:45;100086.81;;;4.52;100.00
15294;BME280;7748;52.474;13.454;2023-01-30T08:43:13;100091.19;;;4.53;100.00
15294;BME280;7748;52.474;13.454;2023-01-30T08:45:42;100101.38;;;4.51;100.00
15294;BME280;7748;52.474;13.454;2023-01-30T08:48:10;100102.38;;;4.55;100.00
15294;BME280;7748;52.474;13.454;2023-01-30T08:50:38;100091.22;;;4.54;100.00
15294;BME280;7748;52.474;13.454;2023-01-30T08:53:07;100098.91;;;4.53;100.00
15294;BME280;7748;52.474;13.454;2023-01-30T08:55:35;100094.75;;;4.56;100.00
15294;BME280;7748;52.474;13.454;2023-01-30T08:58:03;100097.69;;;4.64;100.00
15294;BME280;7748;52.474;13.454;2023-01-30T09:00:31;100097.84;;;4.67;100.00
15294;BME280;7748;52.474;13.454;2023-01-30T09:03:00;100103.13;;;4.70;100.00
15294;BME280;7748;52.474;13.454;2023-01-30T09:05:28;100092.97;;;4.73;100.00
15294;BME280;7748;52.474;13.454;2023-01-30T09:07:56;100093.41;;;4.82;100.00
15294;BME280;7748;52.474;13.454;2023-01-30T09:10:24;100088.69;;;4.92;100.00
15294;BME280;7748;52.474;13.454;2023-01-30T09:12:52;100095.16;;;5.01;100.00
15294;BME280;7748;52.474;13.454;2023-01-30T09:15:20;100090.25;;;5.07;100.00
15294;BME280;7748;52.474;13.454;2023-01-30T09:17:47;100099.69;;;5.07;100.00
15294;BME280;7748;52.474;13.454;2023-01-30T09:20:17;100102.38;;;5.10;100.00
15294;BME280;7748;52.474;13.454;2023-01-30T09:22:46;100103.59;;;4.99;100.00
15294;BME280;7748;52.474;13.454;2023-01-30T09:25:14;100106.31;;;5.02;100.00
15294;BME280;7748;52.474;13.454;2023-01-30T09:27:42;100104.75;;;5.05;100.00
15294;BME280;7748;52.474;13.454;2023-01-30T09:30:11;100108.50;;;5.12;100.00
15294;BME280;7748;52.474;13.454;2023-01-30T09:32:39;100108.03;;;5.21;100.00
15294;BME280;7748;52.474;13.454;2023-01-30T09:35:07;100112.34;;;5.22;100.00
15294;BME280;7748;52.474;13.454;2023-01-30T09:37:36;100114.28;;;5.26;100.00
15294;BME280;7748;52.474;13.454;2023-01-30T09:40:05;100114.34;;;5.27;100.00
15294;BME280;7748;52.474;13.454;2023-01-30T09:42:54;100117.72;;;5.26;100.00
15294;BME280;7748;52.474;13.454;2023-01-30T09:45:36;100116.47;;;5.36;100.00
15294;BME280;7748;52.474;13.454;2023-01-30T09:48:14;100110.34;;;5.34;100.00
15294;BME280;7748;52.474;13.454;2023-01-30T09:53:50;100098.88;;;5.47;100.00
15294;BME280;7748;52.474;13.454;2023-01-30T09:56:20;100114.06;;;5.60;100.00
15294;BME280;7748;52.474;13.454;2023-01-30T09:58:50;100104.06;;;5.66;100.00
15294;BME280;7748;52.474;13.454;2023-01-30T10:01:26;100107.53;;;5.68;100.00
15294;BME280;7748;52.474;13.454;2023-01-30T10:04:04;100101.41;;;5.65;100.00
15294;BME280;7748;52.474;13.454;2023-01-30T10:06:38;100114.47;;;5.69;100.00
15294;BME280;7748;52.474;13.454;2023-01-30T10:09:14;100105.78;;;5.67;100.00
15294;BME280;7748;52.474;13.454;2023-01-30T10:12:01;100104.06;;;5.66;100.00
15294;BME280;7748;52.474;13.454;2023-01-30T10:14:44;100102.66;;;5.75;100.00
15294;BME280;7748;52.474;13.454;2023-01-30T10:17:31;100106.31;;;5.80;100.00
15294;BME280;7748;52.474;13.454;2023-01-30T10:20:21;100104.84;;;5.85;100.00
15294;BME280;7748;52.474;13.454;2023-01-30T10:22:59;100108.59;;;5.93;100.00
15294;BME280;7748;52.474;13.454;2023-01-30T10:25:36;100116.56;;;5.98;100.00
15294;BME280;7748;52.474;13.454;2023-01-30T10:28:13;100118.47;;;6.02;100.00
15294;BME280;7748;52.474;13.454;2023-01-30T10:30:43;100112.06;;;6.13;100.00
15294;BME280;7748;52.474;13.454;2023-01-30T10:33:19;100116.31;;;6.13;100.00
15294;BME280;7748;52.474;13.454;2023-01-30T10:35:57;100115.59;;;6.36;100.00
15294;BME280;7748;52.474;13.454;2023-01-30T10:38:30;100120.28;;;6.46;100.00
15294;BME280;7748;52.474;13.454;2023-01-30T10:41:06;100126.31;;;6.47;100.00
15294;BME280;7748;52.474;13.454;2023-01-30T10:43:40;100105.63;;;6.45;100.00
15294;BME280;7748;52.474;13.454;2023-01-30T10:46:21;100102.91;;;6.42;100.00
15294;BME280;7748;52.474;13.454;2023-01-30T10:48:56;100108.06;;;6.42;100.00
15294;BME280;7748;52.474;13.454;2023-01-30T10:51:34;100100.34;;;6.42;100.00
15294;BME280;7748;52.474;13.454;2023-01-30T10:54:10;58734.78;;;-145.20;100.00
15294;BME280;7748;52.474;13.454;2023-01-30T10:56:44;58734.78;;;-145.20;100.00
15294;BME280;7748;52.474;13.454;2023-01-30T10:59:23;58734.78;;;-145.20;100.00
15294;BME280;7748;52.474;13.454;2023-01-30T11:02:00;58734.78;;;-145.20;100.00
15294;BME280;7748;52.474;13.454;2023-01-30T11:04:35;58734.78;;;-145.20;100.00
15294;BME280;7748;52.474;13.454;2023-01-30T11:07:08;58734.78;;;-145.20;100.00
15294;BME280;7748;52.474;13.454;2023-01-30T11:09:40;58734.78;;;-145.20;100.00
15294;BME280;7748;52.474;13.454;2023-01-30T11:12:10;58734.78;;;-145.20;100.00
15294;BME280;7748;52.474;13.454;2023-01-30T11:14:52;58734.78;;;-145.20;100.00
15294;BME280;7748;52.474;13.454;2023-01-30T11:17:27;58734.78;;;-145.20;100.00
15294;BME280;7748;52.474;13.454;2023-01-30T11:20:00;58734.78;;;-145.20;100.00
15294;BME280;7748;52.474;13.454;2023-01-30T11:22:30;58734.78;;;-145.20;100.00
15294;BME280;7748;52.474;13.454;2023-01-30T11:25:02;58734.78;;;-145.20;100.00
15294;BME280;7748;52.474;13.454;2023-01-30T11:27:33;58734.78;;;-145.20;100.00
15294;BME280;7748;52.474;13.454;2023-01-30T11:30:05;58734.78;;;-145.20;100.00
15294;BME280;7748;52.474;13.454;2023-01-30T11:32:33;58734.78;;;-145.20;100.00
15294;BME280;7748;52.474;13.454;2023-01-30T11:35:18;58734.78;;;-145.20;100.00
15294;BME280;7748;52.474;13.454;2023-01-30T11:37:47;58734.78;;;-145.20;100.00
15294;BME280;7748;52.474;13.454;2023-01-30T11:40:25;58734.78;;;-145.20;100.00
15294;BME280;7748;52.474;13.454;2023-01-30T11:43:02;58734.78;;;-145.20;100.00
15294;BME280;7748;52.474;13.454;2023-01-30T11:45:35;58734.78;;;-145.20;100.00
15294;BME280;7748;52.474;13.454;2023-01-30T11:48:11;58734.78;;;-145.20;100.00
15294;BME280;7748;52.474;13.454;2023-01-30T11:51:04;58734.78;;;-145.20;100.00
15294;BME280;7748;52.474;13.454;2023-01-30T11:53:35;58734.78;;;-145.20;100.00
15294;BME280;7748;52.474;13.454;2023-01-30T11:56:07;58734.78;;;-145.20;100.00
15294;BME280;7748;52.474;13.454;2023-01-30T11:58:40;58734.78;;;-145.20;100.00
15294;BME280;7748;52.474;13.454;2023-01-30T12:01:12;58734.78;;;-145.20;100.00
15294;BME280;7748;52.474;13.454;2023-01-30T12:03:46;58734.78;;;-145.20;100.00
15294;BME280;7748;52.474;13.454;2023-01-30T12:06:22;58734.78;;;-145.20;100.00
15294;BME280;7748;52.474;13.454;2023-01-30T12:08:52;58734.78;;;-145.20;100.00
15294;BME280;7748;52.474;13.454;2023-01-30T12:11:39;58734.78;;;-145.20;100.00
15294;BME280;7748;52.474;13.454;2023-01-30T12:14:35;58734.78;;;-145.20;100.00
15294;BME280;7748;52.474;13.454;2023-01-30T12:17:12;58734.78;;;-145.20;100.00
15294;BME280;7748;52.474;13.454;2023-01-30T12:19:52;58734.78;;;-145.20;100.00
15294;BME280;7748;52.474;13.454;2023-01-30T12:22:29;58734.78;;;-145.20;100.00
15294;BME280;7748;52.474;13.454;2023-01-30T12:25:00;58734.78;;;-145.20;100.00
15294;BME280;7748;52.474;13.454;2023-01-30T12:27:40;58734.78;;;-145.20;100.00
15294;BME280;7748;52.474;13.454;2023-01-30T12:30:21;58734.78;;;-145.20;100.00
15294;BME280;7748;52.474;13.454;2023-01-30T12:32:54;58734.78;;;-145.20;100.00
15294;BME280;7748;52.474;13.454;2023-01-30T12:35:29;58734.78;;;-145.20;100.00
15294;BME280;7748;52.474;13.454;2023-01-30T12:38:03;58734.78;;;-145.20;100.00
15294;BME280;7748;52.474;13.454;2023-01-30T12:40:42;58734.78;;;-145.20;100.00
15294;BME280;7748;52.474;13.454;2023-01-30T12:43:29;58734.78;;;-145.20;100.00
15294;BME280;7748;52.474;13.454;2023-01-30T12:46:10;58734.78;;;-145.20;100.00
15294;BME280;7748;52.474;13.454;2023-01-30T12:49:13;58734.78;;;-145.20;100.00
15294;BME280;7748;52.474;13.454;2023-01-30T12:51:58;58734.78;;;-145.20;100.00
15294;BME280;7748;52.474;13.454;2023-01-30T12:54:43;58734.78;;;-145.20;100.00
15294;BME280;7748;52.474;13.454;2023-01-30T12:57:21;58734.78;;;-145.20;100.00
15294;BME280;7748;52.474;13.454;2023-01-30T13:00:00;58734.78;;;-145.20;100.00
15294;BME280;7748;52.474;13.454;2023-01-30T13:02:54;58734.78;;;-145.20;100.00
15294;BME280;7748;52.474;13.454;2023-01-30T13:05:33;58734.78;;;-145.20;100.00
15294;BME280;7748;52.474;13.454;2023-01-30T13:08:17;58734.78;;;-145.20;100.00
15294;BME280;7748;52.474;13.454;2023-01-30T13:10:53;58734.78;;;-145.20;100.00
15294;BME280;7748;52.474;13.454;2023-01-30T13:13:30;58734.78;;;-145.20;100.00